Time;durP1;ratioP1;P1;durP2;ratioP2;P2;SDS_P1;SDS_P2;PMS_P1;PMS_P2;Temp;Humidity;BMP_temperature;BMP_pressure;BME280_temperature;BME280_humidity;BME280_pressure;Samples;Min_cycle;Max_cycle;Signal;HPM_P1;HPM_P2
2023/07/02 00:01:49;;;;;;;11.43;5.43;;;;;;;;;;5003753;28;20216;-91
2023/07/02 00:04:19;;;;;;;13.20;5.77;;;;;;;;;;4999497;28;20262;-90
2023/07/02 00:06:48;;;;;;;13.17;5.77;;;;;;;;;;5000063;28;20310;-91
2023/07/02 00:09:14;;;;;;;15.53;6.20;;;;;;;;;;5015611;28;20185;-90
2023/07/02 00:11:42;;;;;;;11.50;6.00;;;;;;;;;;4999868;28;20249;-91
2023/07/02 00:14:08;;;;;;;15.30;6.77;;;;;;;;;;4999228;28;20185;-91
2023/07/02 00:16:35;;;;;;;11.57;6.27;;;;;;;;;;4998748;28;20189;-90
2023/07/02 00:19:01;;;;;;;13.70;6.87;;;;;;;;;;4999181;28;20195;-91
2023/07/02 00:21:28;;;;;;;14.57;6.67;;;;;;;;;;4977208;28;20214;-91
2023/07/02 00:23:57;;;;;;;12.43;6.70;;;;;;;;;;4976277;28;20220;-90
2023/07/02 00:26:25;;;;;;;15.33;7.37;;;;;;;;;;4982822;28;20190;-91
2023/07/02 00:28:52;;;;;;;20.27;7.80;;;;;;;;;;4998931;28;20193;-91
2023/07/02 00:31:18;;;;;;;15.70;7.80;;;;;;;;;;5004179;28;20200;-92
2023/07/02 00:33:44;;;;;;;16.80;8.10;;;;;;;;;;4997553;28;20192;-90
2023/07/02 00:36:14;;;;;;;19.50;8.33;;;;;;;;;;5001399;28;20193;-90
2023/07/02 00:38:41;;;;;;;15.77;8.80;;;;;;;;;;5014227;28;20189;-90
2023/07/02 00:41:07;;;;;;;15.53;8.40;;;;;;;;;;5005371;28;20224;-89
2023/07/02 00:43:33;;;;;;;19.03;8.77;;;;;;;;;;5001836;28;20276;-85
2023/07/02 00:45:59;;;;;;;18.63;9.03;;;;;;;;;;5010105;28;20185;-85
2023/07/02 00:48:25;;;;;;;16.50;9.07;;;;;;;;;;5014891;28;20271;-85
2023/07/02 00:50:51;;;;;;;17.47;9.67;;;;;;;;;;5015459;28;20259;-85
2023/07/02 00:53:17;;;;;;;18.07;9.73;;;;;;;;;;5010038;28;20216;-85
2023/07/02 00:55:43;;;;;;;16.77;9.83;;;;;;;;;;5009070;28;20184;-85
2023/07/02 00:58:09;;;;;;;17.70;9.57;;;;;;;;;;5003863;28;20224;-84
2023/07/02 01:00:36;;;;;;;17.37;7.80;;;;;;;;;;5015919;28;20206;-85
2023/07/02 01:03:02;;;;;;;17.70;8.23;;;;;;;;;;4986663;28;20280;-82
2023/07/02 01:05:35;;;;;;;18.60;7.67;;;;;;;;;;5007974;28;20185;-83
2023/07/02 01:08:05;;;;;;;13.80;7.70;;;;;;;;;;5000721;28;20192;-83
2023/07/02 01:10:32;;;;;;;16.03;7.90;;;;;;;;;;5014488;28;20234;-83
2023/07/02 01:13:01;;;;;;;15.80;8.47;;;;;;;;;;5011480;28;20190;-83
2023/07/02 01:15:27;;;;;;;15.80;7.87;;;;;;;;;;5011783;28;20261;-86
2023/07/02 01:17:53;;;;;;;17.27;8.20;;;;;;;;;;5007315;28;20177;-85
2023/07/02 01:20:20;;;;;;;18.53;8.17;;;;;;;;;;5001893;28;20201;-86
2023/07/02 01:22:46;;;;;;;16.43;7.63;;;;;;;;;;5013317;28;20188;-86
2023/07/02 01:25:12;;;;;;;15.07;8.17;;;;;;;;;;5001737;28;20184;-86
2023/07/02 01:27:39;;;;;;;13.83;7.70;;;;;;;;;;5007941;28;20216;-86
2023/07/02 01:30:11;;;;;;;13.43;8.17;;;;;;;;;;5003312;28;20176;-86
2023/07/02 01:32:38;;;;;;;13.10;7.10;;;;;;;;;;5004957;28;20196;-86
2023/07/02 01:35:04;;;;;;;17.33;7.87;;;;;;;;;;5001202;28;20232;-86
2023/07/02 01:37:37;;;;;;;14.43;7.73;;;;;;;;;;5006885;28;20195;-86
2023/07/02 01:40:03;;;;;;;19.20;8.47;;;;;;;;;;4996032;28;20279;-87
2023/07/02 01:42:29;;;;;;;13.90;7.60;;;;;;;;;;5009510;28;20247;-87
2023/07/02 01:44:55;;;;;;;12.50;7.30;;;;;;;;;;4997587;28;20260;-87
2023/07/02 01:47:21;;;;;;;13.90;7.50;;;;;;;;;;5013863;28;20236;-85
2023/07/02 01:49:53;;;;;;;13.30;7.93;;;;;;;;;;5004221;28;20181;-85
2023/07/02 01:52:19;;;;;;;16.13;7.83;;;;;;;;;;5009187;28;20193;-84
2023/07/02 01:54:46;;;;;;;15.67;7.53;;;;;;;;;;4997523;28;20181;-84
2023/07/02 01:57:12;;;;;;;16.27;7.73;;;;;;;;;;4978194;28;20187;-84
2023/07/02 01:59:38;;;;;;;12.30;7.70;;;;;;;;;;5019248;28;20261;-84
2023/07/02 02:02:05;;;;;;;16.80;7.87;;;;;;;;;;5005982;28;20250;-84
2023/07/02 02:04:31;;;;;;;13.40;8.10;;;;;;;;;;4998991;28;20193;-84
2023/07/02 02:06:57;;;;;;;16.17;8.73;;;;;;;;;;4996674;28;20193;-84
2023/07/02 02:09:23;;;;;;;19.27;9.27;;;;;;;;;;4995987;28;20194;-84
2023/07/02 02:11:52;;;;;;;17.30;8.57;;;;;;;;;;4979712;28;20219;-84
2023/07/02 02:14:18;;;;;;;18.53;8.90;;;;;;;;;;4993613;28;20212;-84
2023/07/02 02:16:47;;;;;;;18.63;8.70;;;;;;;;;;4997332;28;20181;-83
2023/07/02 02:19:16;;;;;;;16.20;9.00;;;;;;;;;;4994783;28;20185;-83
2023/07/02 02:21:42;;;;;;;14.93;8.97;;;;;;;;;;5011436;28;20212;-83
2023/07/02 02:24:08;;;;;;;18.60;8.40;;;;;;;;;;4995240;28;20191;-83
2023/07/02 02:26:35;;;;;;;18.20;9.63;;;;;;;;;;4994149;28;20177;-83
2023/07/02 02:29:01;;;;;;;16.00;8.97;;;;;;;;;;4989638;28;20205;-83
2023/07/02 02:31:28;;;;;;;18.13;9.20;;;;;;;;;;4995240;28;20196;-83
2023/07/02 02:33:54;;;;;;;18.27;8.53;;;;;;;;;;4996127;28;20216;-83
2023/07/02 02:36:20;;;;;;;16.87;9.20;;;;;;;;;;4995712;28;20185;-83
2023/07/02 02:38:46;;;;;;;20.97;9.40;;;;;;;;;;4996005;28;20212;-83
2023/07/02 02:41:12;;;;;;;18.03;9.03;;;;;;;;;;4994566;28;20217;-83
2023/07/02 02:43:42;;;;;;;20.20;9.03;;;;;;;;;;4974696;28;20193;-83
2023/07/02 02:46:11;;;;;;;16.93;8.97;;;;;;;;;;4996757;28;20207;-86
2023/07/02 02:48:37;;;;;;;18.30;9.00;;;;;;;;;;4993423;28;20240;-86
2023/07/02 02:51:03;;;;;;;17.53;9.43;;;;;;;;;;4994117;28;20185;-86
2023/07/02 02:53:38;;;;;;;15.37;8.67;;;;;;;;;;4995827;28;20193;-85
2023/07/02 02:56:04;;;;;;;15.13;9.10;;;;;;;;;;4977332;28;20220;-86
2023/07/02 02:58:30;;;;;;;16.17;9.07;;;;;;;;;;4988518;28;20188;-83
2023/07/02 03:00:56;;;;;;;19.00;9.03;;;;;;;;;;4995551;28;20223;-83
2023/07/02 03:03:24;;;;;;;16.03;9.23;;;;;;;;;;4994693;28;20192;-83
2023/07/02 03:05:50;;;;;;;17.40;9.30;;;;;;;;;;4989058;28;20186;-83
2023/07/02 03:08:16;;;;;;;17.37;9.03;;;;;;;;;;4995112;28;20193;-83
2023/07/02 03:10:42;;;;;;;19.63;9.30;;;;;;;;;;4978317;28;20281;-83
2023/07/02 03:13:08;;;;;;;15.70;8.80;;;;;;;;;;4995194;28;20189;-83
2023/07/02 03:15:34;;;;;;;18.43;9.20;;;;;;;;;;4979914;28;20228;-83
2023/07/02 03:18:00;;;;;;;16.83;8.80;;;;;;;;;;4991526;28;20192;-83
2023/07/02 03:20:26;;;;;;;20.57;9.37;;;;;;;;;;4993675;28;20220;-83
2023/07/02 03:22:52;;;;;;;16.53;8.57;;;;;;;;;;4993922;28;20181;-83
2023/07/02 03:25:18;;;;;;;18.30;9.70;;;;;;;;;;4996716;28;20192;-83
2023/07/02 03:27:45;;;;;;;20.17;9.30;;;;;;;;;;4997213;28;20201;-83
2023/07/02 03:30:11;;;;;;;19.60;9.43;;;;;;;;;;4998170;28;20196;-83
2023/07/02 03:32:37;;;;;;;19.23;9.40;;;;;;;;;;4983151;28;20200;-83
2023/07/02 03:35:03;;;;;;;16.37;9.53;;;;;;;;;;4998843;28;20188;-83
2023/07/02 03:37:29;;;;;;;22.23;9.57;;;;;;;;;;4997942;28;20272;-83
2023/07/02 03:39:55;;;;;;;19.43;8.87;;;;;;;;;;4998347;28;20204;-84
2023/07/02 03:42:21;;;;;;;18.10;8.73;;;;;;;;;;4997886;28;20301;-83
2023/07/02 03:44:47;;;;;;;22.60;9.73;;;;;;;;;;4979086;28;20190;-83
2023/07/02 03:47:15;;;;;;;24.47;9.80;;;;;;;;;;4998562;28;20201;-89
2023/07/02 03:49:42;;;;;;;18.20;9.27;;;;;;;;;;4983512;28;20204;-89
2023/07/02 03:52:08;;;;;;;18.00;8.97;;;;;;;;;;4998556;28;20185;-89
2023/07/02 03:54:34;;;;;;;17.80;9.53;;;;;;;;;;4999394;28;20212;-88
2023/07/02 03:57:00;;;;;;;14.53;8.60;;;;;;;;;;4998629;28;20190;-88
2023/07/02 03:59:26;;;;;;;14.87;8.80;;;;;;;;;;4995964;28;20213;-89
2023/07/02 04:01:52;;;;;;;15.23;8.57;;;;;;;;;;4996259;28;20292;-88
2023/07/02 04:04:18;;;;;;;22.17;9.20;;;;;;;;;;4998640;28;20252;-89
2023/07/02 04:06:44;;;;;;;18.20;8.97;;;;;;;;;;4991509;28;20248;-89
2023/07/02 04:09:10;;;;;;;16.27;9.13;;;;;;;;;;4973645;28;20220;-89
2023/07/02 04:11:36;;;;;;;18.67;9.43;;;;;;;;;;4998809;28;20189;-83
2023/07/02 04:14:02;;;;;;;21.50;9.77;;;;;;;;;;4997635;28;20193;-89
2023/07/02 04:16:28;;;;;;;18.00;10.23;;;;;;;;;;4983524;28;20192;-89
2023/07/02 04:18:54;;;;;;;19.40;9.10;;;;;;;;;;4996926;28;20186;-89
2023/07/02 04:21:20;;;;;;;18.70;8.83;;;;;;;;;;4997524;28;20471;-89
2023/07/02 04:23:46;;;;;;;22.50;9.33;;;;;;;;;;5005311;28;20183;-89
2023/07/02 04:26:12;;;;;;;17.10;9.07;;;;;;;;;;5011749;28;20268;-89
2023/07/02 04:28:38;;;;;;;17.30;8.50;;;;;;;;;;5000075;28;20268;-88
2023/07/02 04:31:04;;;;;;;20.43;9.57;;;;;;;;;;5000607;28;20184;-83
2023/07/02 04:33:35;;;;;;;17.87;8.93;;;;;;;;;;5009022;28;20223;-83
2023/07/02 04:36:01;;;;;;;19.37;9.30;;;;;;;;;;4996854;28;20189;-83
2023/07/02 04:38:28;;;;;;;19.63;9.30;;;;;;;;;;4996436;28;20177;-83
2023/07/02 04:40:57;;;;;;;20.47;9.43;;;;;;;;;;4982888;28;20264;-83
2023/07/02 04:43:23;;;;;;;17.53;8.97;;;;;;;;;;4981774;28;20241;-83
2023/07/02 04:45:49;;;;;;;18.23;9.33;;;;;;;;;;4974985;28;20209;-83
2023/07/02 04:48:15;;;;;;;18.27;8.60;;;;;;;;;;4991824;28;20190;-82
2023/07/02 04:50:42;;;;;;;19.40;8.50;;;;;;;;;;4983275;28;20190;-83
2023/07/02 04:53:08;;;;;;;21.10;9.30;;;;;;;;;;4998273;28;20185;-83
2023/07/02 04:55:34;;;;;;;20.03;9.50;;;;;;;;;;4998914;28;20216;-83
2023/07/02 04:58:00;;;;;;;18.67;8.67;;;;;;;;;;5003279;28;20185;-84
2023/07/02 05:00:26;;;;;;;18.53;8.97;;;;;;;;;;5003449;28;20208;-83
2023/07/02 05:02:53;;;;;;;20.73;9.20;;;;;;;;;;5001536;28;20182;-83
2023/07/02 05:05:20;;;;;;;19.50;9.80;;;;;;;;;;5010989;28;20219;-83
2023/07/02 05:07:46;;;;;;;19.23;9.07;;;;;;;;;;4979123;28;20208;-83
2023/07/02 05:10:12;;;;;;;21.20;9.07;;;;;;;;;;5017404;28;20190;-83
2023/07/02 05:12:38;;;;;;;22.33;9.80;;;;;;;;;;4997340;28;20190;-83
2023/07/02 05:15:04;;;;;;;20.60;9.60;;;;;;;;;;5007724;28;20312;-89
2023/07/02 05:17:32;;;;;;;22.20;10.03;;;;;;;;;;5010906;28;20196;-89
2023/07/02 05:19:58;;;;;;;19.90;9.60;;;;;;;;;;5007594;28;20185;-83
2023/07/02 05:22:24;;;;;;;20.23;9.60;;;;;;;;;;4997587;28;20268;-83
2023/07/02 05:24:50;;;;;;;21.73;9.23;;;;;;;;;;5008291;28;20176;-85
2023/07/02 05:27:16;;;;;;;22.43;9.27;;;;;;;;;;5004564;28;20205;-85
2023/07/02 05:29:43;;;;;;;19.90;9.83;;;;;;;;;;4997888;28;20189;-84
2023/07/02 05:32:09;;;;;;;22.20;9.47;;;;;;;;;;4995794;28;20213;-84
2023/07/02 05:34:35;;;;;;;19.97;9.40;;;;;;;;;;5010619;28;20176;-84
2023/07/02 05:37:01;;;;;;;20.70;9.57;;;;;;;;;;4995254;28;20305;-84
2023/07/02 05:39:27;;;;;;;18.20;10.03;;;;;;;;;;4997178;28;20205;-84
2023/07/02 05:41:53;;;;;;;21.40;9.73;;;;;;;;;;4996322;28;20233;-84
2023/07/02 05:44:19;;;;;;;20.73;9.30;;;;;;;;;;4985563;28;20189;-82
2023/07/02 05:46:45;;;;;;;20.80;9.80;;;;;;;;;;4977898;28;20186;-83
2023/07/02 05:49:11;;;;;;;23.43;9.87;;;;;;;;;;4991460;28;20177;-89
2023/07/02 05:51:38;;;;;;;23.33;9.77;;;;;;;;;;4997927;28;20244;-89
2023/07/02 05:54:04;;;;;;;20.77;9.37;;;;;;;;;;4998385;28;20181;-89
2023/07/02 05:56:30;;;;;;;25.63;10.97;;;;;;;;;;4991390;28;20200;-89
2023/07/02 05:58:56;;;;;;;26.07;9.70;;;;;;;;;;4997515;28;20179;-89
2023/07/02 06:01:22;;;;;;;25.50;10.63;;;;;;;;;;4988420;28;20209;-88
2023/07/02 06:03:49;;;;;;;24.43;9.90;;;;;;;;;;4989779;28;20265;-89
2023/07/02 06:06:15;;;;;;;22.37;10.03;;;;;;;;;;4976139;28;20196;-89
2023/07/02 06:08:42;;;;;;;20.00;9.33;;;;;;;;;;4995547;28;20173;-90
2023/07/02 06:11:08;;;;;;;24.77;10.37;;;;;;;;;;4981887;28;20189;-89
2023/07/02 06:13:34;;;;;;;23.00;9.63;;;;;;;;;;4997478;28;20260;-89
2023/07/02 06:16:00;;;;;;;24.83;10.13;;;;;;;;;;4993527;28;20202;-88
2023/07/02 06:18:26;;;;;;;24.17;9.87;;;;;;;;;;4994764;28;20178;-89
2023/07/02 06:20:52;;;;;;;23.87;9.57;;;;;;;;;;4997890;28;20291;-88
2023/07/02 06:23:21;;;;;;;22.73;9.63;;;;;;;;;;4983802;28;20183;-89
2023/07/02 06:25:47;;;;;;;24.47;9.67;;;;;;;;;;4980645;28;20192;-89
2023/07/02 06:28:13;;;;;;;22.63;9.23;;;;;;;;;;4992800;28;20240;-88
2023/07/02 06:30:40;;;;;;;21.70;9.10;;;;;;;;;;4998181;28;20181;-89
2023/07/02 06:33:06;;;;;;;22.27;8.97;;;;;;;;;;4984876;28;20190;-85
2023/07/02 06:35:32;;;;;;;24.20;8.80;;;;;;;;;;4982122;28;20192;-84
2023/07/02 06:37:58;;;;;;;20.67;8.93;;;;;;;;;;4980733;28;20216;-85
2023/07/02 06:40:24;;;;;;;20.03;9.07;;;;;;;;;;4978496;28;20236;-85
2023/07/02 06:42:50;;;;;;;20.27;9.13;;;;;;;;;;4987677;28;20225;-84
2023/07/02 06:45:16;;;;;;;22.73;9.07;;;;;;;;;;4977529;28;20193;-85
2023/07/02 06:47:42;;;;;;;17.20;8.47;;;;;;;;;;4993934;28;20174;-83
2023/07/02 06:50:08;;;;;;;21.03;8.63;;;;;;;;;;4980069;28;20224;-84
2023/07/02 06:52:34;;;;;;;16.23;8.77;;;;;;;;;;4971211;28;20194;-84
2023/07/02 06:55:00;;;;;;;18.97;8.60;;;;;;;;;;4974728;28;20186;-83
2023/07/02 06:57:26;;;;;;;16.47;8.60;;;;;;;;;;4959074;28;20283;-83
2023/07/02 06:59:52;;;;;;;18.90;8.80;;;;;;;;;;4958043;28;20222;-83
2023/07/02 07:02:18;;;;;;;20.27;8.90;;;;;;;;;;4949254;28;20227;-84
2023/07/02 07:04:44;;;;;;;16.67;7.83;;;;;;;;;;4942218;28;20182;-83
2023/07/02 07:07:10;;;;;;;18.73;7.87;;;;;;;;;;4942657;28;20200;-85
2023/07/02 07:09:36;;;;;;;20.83;9.00;;;;;;;;;;4942452;28;20186;-83
2023/07/02 07:12:03;;;;;;;21.03;7.90;;;;;;;;;;4970365;28;20196;-84
2023/07/02 07:14:29;;;;;;;22.73;8.30;;;;;;;;;;4977329;28;20273;-86
2023/07/02 07:16:55;;;;;;;14.17;7.90;;;;;;;;;;4977441;28;20217;-84
2023/07/02 07:19:21;;;;;;;17.40;7.87;;;;;;;;;;4978013;28;20178;-86
2023/07/02 07:21:57;;;;;;;14.50;7.90;;;;;;;;;;4972343;28;20248;-86
2023/07/02 07:24:23;;;;;;;17.63;7.77;;;;;;;;;;4957891;28;20181;-85
2023/07/02 07:26:49;;;;;;;20.90;7.93;;;;;;;;;;4957143;28;20182;-86
2023/07/02 07:29:15;;;;;;;19.73;7.63;;;;;;;;;;4976383;28;20201;-86
2023/07/02 07:31:41;;;;;;;17.87;7.73;;;;;;;;;;4976265;28;20273;-86
2023/07/02 07:34:07;;;;;;;15.37;7.57;;;;;;;;;;4976591;28;20259;-87
2023/07/02 07:36:33;;;;;;;14.97;7.47;;;;;;;;;;4959827;28;20237;-85
2023/07/02 07:38:59;;;;;;;15.30;7.20;;;;;;;;;;4961827;28;20190;-85
2023/07/02 07:41:25;;;;;;;14.73;7.53;;;;;;;;;;4979010;28;20205;-85
2023/07/02 07:43:52;;;;;;;14.40;8.07;;;;;;;;;;4973807;28;20194;-86
2023/07/02 07:46:18;;;;;;;16.70;7.80;;;;;;;;;;4990268;28;20334;-86
2023/07/02 07:48:44;;;;;;;16.87;7.27;;;;;;;;;;5007656;28;20194;-86
2023/07/02 07:51:10;;;;;;;20.77;8.40;;;;;;;;;;5025011;28;20181;-85
2023/07/02 07:53:39;;;;;;;12.87;7.00;;;;;;;;;;4997518;28;20190;-85
2023/07/02 07:56:05;;;;;;;15.07;7.20;;;;;;;;;;4977560;28;20194;-86
2023/07/02 07:58:34;;;;;;;15.03;7.17;;;;;;;;;;4994048;28;20182;-85
2023/07/02 08:01:00;;;;;;;18.93;8.00;;;;;;;;;;4994057;28;20242;-86
2023/07/02 08:03:26;;;;;;;15.30;7.43;;;;;;;;;;4995324;28;20186;-87
2023/07/02 08:05:52;;;;;;;18.93;7.63;;;;;;;;;;4963924;28;20191;-85
2023/07/02 08:08:18;;;;;;;17.13;7.60;;;;;;;;;;5007258;28;20182;-86
2023/07/02 08:10:45;;;;;;;16.87;8.03;;;;;;;;;;5010188;28;20193;-85
2023/07/02 08:13:11;;;;;;;17.97;7.67;;;;;;;;;;4999298;28;20214;-86
2023/07/02 08:15:38;;;;;;;17.67;7.67;;;;;;;;;;4993345;28;20198;-86
2023/07/02 08:18:04;;;;;;;16.20;8.20;;;;;;;;;;4993710;28;20189;-86
2023/07/02 08:20:30;;;;;;;17.47;7.60;;;;;;;;;;4993340;28;20206;-86
2023/07/02 08:22:56;;;;;;;16.23;7.40;;;;;;;;;;4993482;28;20179;-85
2023/07/02 08:25:22;;;;;;;15.93;7.07;;;;;;;;;;4976752;28;20218;-85
2023/07/02 08:27:48;;;;;;;13.90;7.53;;;;;;;;;;4992744;28;20206;-86
2023/07/02 08:30:14;;;;;;;17.27;6.53;;;;;;;;;;4993063;28;20221;-85
2023/07/02 08:32:40;;;;;;;42.40;9.60;;;;;;;;;;5006870;28;20428;-86
2023/07/02 08:35:06;;;;;;;12.40;7.00;;;;;;;;;;5012218;28;20185;-88
2023/07/02 08:37:32;;;;;;;11.77;6.40;;;;;;;;;;5000086;28;20238;-88
2023/07/02 08:39:59;;;;;;;12.70;6.90;;;;;;;;;;4993228;28;20218;-87
2023/07/02 08:42:29;;;;;;;12.50;6.50;;;;;;;;;;4995704;28;20226;-88
2023/07/02 08:44:56;;;;;;;11.97;6.60;;;;;;;;;;4997180;28;20182;-89
2023/07/02 08:47:22;;;;;;;14.53;7.33;;;;;;;;;;4998801;28;20227;-87
2023/07/02 08:49:49;;;;;;;11.70;6.27;;;;;;;;;;4999194;28;20264;-88
2023/07/02 08:52:17;;;;;;;12.67;6.77;;;;;;;;;;4999454;28;20284;-87
2023/07/02 08:54:43;;;;;;;14.17;6.80;;;;;;;;;;4998573;28;20177;-87
2023/07/02 08:57:12;;;;;;;16.40;7.33;;;;;;;;;;4998998;28;20251;-89
2023/07/02 08:59:38;;;;;;;11.93;6.23;;;;;;;;;;4999037;28;20181;-88
2023/07/02 09:02:05;;;;;;;17.40;7.03;;;;;;;;;;4982955;28;20217;-88
2023/07/02 09:04:31;;;;;;;11.63;6.37;;;;;;;;;;4963554;28;20182;-88
2023/07/02 09:07:07;;;;;;;15.80;6.50;;;;;;;;;;4996271;28;20178;-88
2023/07/02 09:09:33;;;;;;;14.27;7.17;;;;;;;;;;5012427;28;20240;-89
2023/07/02 09:11:59;;;;;;;13.67;6.60;;;;;;;;;;4997715;28;20193;-88
2023/07/02 09:14:26;;;;;;;12.20;5.83;;;;;;;;;;5000162;28;20185;-87
2023/07/02 09:17:31;;;;;;;18.47;7.07;;;;;;;;;;5000104;28;20181;-89
2023/07/02 09:19:58;;;;;;;13.70;6.10;;;;;;;;;;4921248;29;20239;-87
2023/07/02 09:22:24;;;;;;;12.50;6.13;;;;;;;;;;4984626;28;20189;-88
2023/07/02 09:24:58;;;;;;;13.40;6.57;;;;;;;;;;4998658;28;20177;-89
2023/07/02 09:27:38;;;;;;;10.60;6.37;;;;;;;;;;4998567;28;20201;-88
2023/07/02 09:30:18;;;;;;;13.83;6.13;;;;;;;;;;4996511;28;20189;-88
2023/07/02 09:32:45;;;;;;;12.60;6.20;;;;;;;;;;4996982;28;20427;-87
2023/07/02 09:35:11;;;;;;;13.27;6.07;;;;;;;;;;4992717;28;20193;-87
2023/07/02 09:37:37;;;;;;;11.27;5.50;;;;;;;;;;4978802;28;20435;-87
2023/07/02 09:40:06;;;;;;;12.77;5.70;;;;;;;;;;4978775;28;20178;-85
2023/07/02 09:42:33;;;;;;;13.03;5.50;;;;;;;;;;4978395;28;20226;-86
2023/07/02 09:44:59;;;;;;;10.57;5.90;;;;;;;;;;4978624;28;20214;-86
2023/07/02 09:47:26;;;;;;;9.67;5.80;;;;;;;;;;4978521;28;20198;-87
2023/07/02 09:49:52;;;;;;;8.20;4.83;;;;;;;;;;4978553;28;20169;-87
2023/07/02 09:52:18;;;;;;;9.10;5.40;;;;;;;;;;4978290;28;20178;-87
2023/07/02 09:54:45;;;;;;;8.07;5.10;;;;;;;;;;4978457;28;20249;-87
2023/07/02 09:57:11;;;;;;;8.93;5.10;;;;;;;;;;4978105;28;20211;-88
2023/07/02 09:59:38;;;;;;;7.13;4.80;;;;;;;;;;4978120;28;20268;-86
2023/07/02 10:02:11;;;;;;;10.57;4.97;;;;;;;;;;4990993;28;20212;-86
2023/07/02 10:04:43;;;;;;;8.43;5.15;;;;;;;;;;4997963;28;20251;-87
2023/07/02 10:07:09;;;;;;;8.30;5.20;;;;;;;;;;4991946;28;20189;-87
2023/07/02 10:09:40;;;;;;;12.47;5.60;;;;;;;;;;4998697;28;20182;-87
2023/07/02 10:12:18;;;;;;;8.10;4.97;;;;;;;;;;4997899;28;20185;-86
2023/07/02 10:14:44;;;;;;;7.88;4.90;;;;;;;;;;4989174;28;20192;-87
2023/07/02 10:17:11;;;;;;;11.13;5.47;;;;;;;;;;4997397;28;20192;-86
2023/07/02 10:19:37;;;;;;;9.63;5.18;;;;;;;;;;4997495;28;20173;-86
2023/07/02 10:22:04;;;;;;;8.13;5.28;;;;;;;;;;4981413;28;20306;-86
2023/07/02 10:24:30;;;;;;;7.63;4.82;;;;;;;;;;4996844;28;20181;-86
2023/07/02 10:26:57;;;;;;;14.90;5.30;;;;;;;;;;4997064;28;20277;-87
2023/07/02 10:29:24;;;;;;;17.90;5.40;;;;;;;;;;4992559;28;20182;-86
2023/07/02 10:31:51;;;;;;;10.07;4.78;;;;;;;;;;4974613;28;20230;-86
2023/07/02 10:34:28;;;;;;;7.53;4.50;;;;;;;;;;4998775;28;20185;-88
2023/07/02 10:36:55;;;;;;;7.47;4.57;;;;;;;;;;4997676;28;20225;-87
2023/07/02 10:39:21;;;;;;;7.93;4.32;;;;;;;;;;4996984;28;20189;-87
2023/07/02 10:41:47;;;;;;;8.02;5.03;;;;;;;;;;4996047;28;20233;-85
2023/07/02 10:44:13;;;;;;;7.75;4.68;;;;;;;;;;4981388;28;20192;-85
2023/07/02 10:46:46;;;;;;;6.55;4.25;;;;;;;;;;4997250;28;20173;-86
2023/07/02 10:49:13;;;;;;;10.30;4.70;;;;;;;;;;4996887;28;20256;-87
2023/07/02 10:51:39;;;;;;;6.93;4.65;;;;;;;;;;4996509;28;20188;-86
2023/07/02 10:54:05;;;;;;;8.70;4.88;;;;;;;;;;4997184;28;20196;-86
2023/07/02 10:56:32;;;;;;;10.68;5.38;;;;;;;;;;4997410;28;20212;-87
2023/07/02 10:58:58;;;;;;;7.40;4.80;;;;;;;;;;4996816;28;20180;-87
2023/07/02 11:01:25;;;;;;;6.53;4.30;;;;;;;;;;4993934;28;20295;-89
2023/07/02 11:04:01;;;;;;;10.52;5.22;;;;;;;;;;4996989;28;20239;-87
2023/07/02 11:06:27;;;;;;;7.00;4.85;;;;;;;;;;4997192;28;20184;-86
2023/07/02 11:08:55;;;;;;;9.13;5.00;;;;;;;;;;4992841;28;20197;-87
2023/07/02 11:11:22;;;;;;;8.77;4.88;;;;;;;;;;5013329;28;20193;-88
2023/07/02 11:13:51;;;;;;;9.05;5.25;;;;;;;;;;4996141;28;20285;-86
2023/07/02 11:16:28;;;;;;;14.27;5.20;;;;;;;;;;4981256;28;20185;-86
2023/07/02 11:18:55;;;;;;;8.82;5.00;;;;;;;;;;4997204;28;20181;-86
2023/07/02 11:21:21;;;;;;;8.65;4.82;;;;;;;;;;4993051;28;20201;-87
2023/07/02 11:23:47;;;;;;;9.48;4.53;;;;;;;;;;4977505;28;20229;-87
2023/07/02 11:26:13;;;;;;;8.73;4.93;;;;;;;;;;4977644;28;20174;-88
2023/07/02 11:28:48;;;;;;;12.27;5.03;;;;;;;;;;4989156;28;20296;-86
2023/07/02 11:31:14;;;;;;;8.07;4.95;;;;;;;;;;4996448;28;20235;-87
2023/07/02 11:33:41;;;;;;;8.10;4.78;;;;;;;;;;4995472;28;20281;-87
2023/07/02 11:36:08;;;;;;;9.23;4.68;;;;;;;;;;4996022;28;20243;-86
2023/07/02 11:38:35;;;;;;;7.03;4.68;;;;;;;;;;4994139;28;20193;-87
2023/07/02 11:41:03;;;;;;;7.72;4.13;;;;;;;;;;4983576;28;20237;-88
2023/07/02 11:43:29;;;;;;;9.23;4.60;;;;;;;;;;4990312;28;20222;-87
2023/07/02 11:45:55;;;;;;;7.32;3.88;;;;;;;;;;4980852;28;20269;-87
2023/07/02 11:48:21;;;;;;;9.02;4.40;;;;;;;;;;5000137;28;20239;-87
2023/07/02 11:50:47;;;;;;;7.03;4.65;;;;;;;;;;4996049;28;20193;-87
2023/07/02 11:53:13;;;;;;;7.03;4.25;;;;;;;;;;5005411;28;20186;-87
2023/07/02 11:55:39;;;;;;;7.00;4.57;;;;;;;;;;5008466;28;20188;-87
2023/07/02 11:58:05;;;;;;;5.47;4.10;;;;;;;;;;4981408;28;20182;-86
2023/07/02 12:00:32;;;;;;;6.55;4.10;;;;;;;;;;4980445;28;20210;-87
2023/07/02 12:02:58;;;;;;;6.68;4.30;;;;;;;;;;4993246;28;20189;-87
2023/07/02 12:05:24;;;;;;;8.30;4.03;;;;;;;;;;5000348;28;20264;-86
2023/07/02 12:07:51;;;;;;;5.20;3.95;;;;;;;;;;4997401;28;20177;-87
2023/07/02 12:10:17;;;;;;;5.75;3.90;;;;;;;;;;4997329;28;20174;-86
2023/07/02 12:12:43;;;;;;;7.95;4.28;;;;;;;;;;4996592;28;20179;-87
2023/07/02 12:15:09;;;;;;;5.57;4.07;;;;;;;;;;5012891;28;20166;-87
2023/07/02 12:17:35;;;;;;;6.03;3.90;;;;;;;;;;4992045;28;20209;-87
2023/07/02 12:20:01;;;;;;;7.20;4.05;;;;;;;;;;4999679;28;20176;-86
2023/07/02 12:22:28;;;;;;;6.95;3.97;;;;;;;;;;4993359;28;20190;-87
2023/07/02 12:24:56;;;;;;;6.47;4.28;;;;;;;;;;4996471;28;20174;-86
2023/07/02 12:27:22;;;;;;;6.05;4.13;;;;;;;;;;4996134;28;20198;-87
2023/07/02 12:29:48;;;;;;;7.65;4.22;;;;;;;;;;4998215;28;20185;-87
2023/07/02 12:32:15;;;;;;;7.10;4.00;;;;;;;;;;4997128;28;20185;-87
2023/07/02 12:34:41;;;;;;;7.45;4.00;;;;;;;;;;5001369;28;20267;-87
2023/07/02 12:37:07;;;;;;;6.85;4.07;;;;;;;;;;5018626;28;20177;-86
2023/07/02 12:39:33;;;;;;;7.75;4.03;;;;;;;;;;5004149;28;20185;-87
2023/07/02 12:41:59;;;;;;;8.85;4.50;;;;;;;;;;4983116;28;20244;-86
2023/07/02 12:44:25;;;;;;;6.05;4.13;;;;;;;;;;4999183;28;20173;-87
2023/07/02 12:46:51;;;;;;;8.93;4.70;;;;;;;;;;5016446;28;20227;-85
2023/07/02 12:49:17;;;;;;;5.25;4.15;;;;;;;;;;5000734;28;20176;-88
2023/07/02 12:51:43;;;;;;;8.80;4.13;;;;;;;;;;4998973;28;20181;-86
2023/07/02 12:54:09;;;;;;;7.28;4.45;;;;;;;;;;4999056;28;20212;-85
2023/07/02 12:56:35;;;;;;;8.35;4.28;;;;;;;;;;4995774;28;20185;-86
2023/07/02 12:59:03;;;;;;;8.75;4.80;;;;;;;;;;4998495;28;20185;-86
2023/07/02 13:01:29;;;;;;;5.47;4.55;;;;;;;;;;4998385;28;20288;-86
2023/07/02 13:03:55;;;;;;;7.47;4.28;;;;;;;;;;4998379;28;20188;-86
2023/07/02 13:06:21;;;;;;;6.43;4.18;;;;;;;;;;4999238;28;20169;-86
2023/07/02 13:08:47;;;;;;;9.88;4.32;;;;;;;;;;4998966;28;20248;-86
2023/07/02 13:11:14;;;;;;;7.40;4.10;;;;;;;;;;4993823;28;20268;-86
2023/07/02 13:13:40;;;;;;;6.63;4.45;;;;;;;;;;4998254;28;20185;-89
2023/07/02 13:16:06;;;;;;;6.93;4.38;;;;;;;;;;4996306;28;20205;-88
2023/07/02 13:18:32;;;;;;;7.15;4.10;;;;;;;;;;4995741;28;20181;-85
2023/07/02 13:20:59;;;;;;;6.72;4.18;;;;;;;;;;4998447;28;20215;-86
2023/07/02 13:23:25;;;;;;;5.85;3.78;;;;;;;;;;4998500;28;20177;-86
2023/07/02 13:25:51;;;;;;;7.22;4.20;;;;;;;;;;4998867;28;20174;-86
2023/07/02 13:28:17;;;;;;;6.30;4.20;;;;;;;;;;4982100;28;20224;-86
2023/07/02 13:30:43;;;;;;;10.55;4.18;;;;;;;;;;4997907;28;20265;-86
2023/07/02 13:33:09;;;;;;;6.53;4.10;;;;;;;;;;4981480;28;20205;-85
2023/07/02 13:35:37;;;;;;;8.38;4.50;;;;;;;;;;4996707;28;20427;-86
2023/07/02 13:38:04;;;;;;;7.88;4.50;;;;;;;;;;4997423;28;20348;-88
2023/07/02 13:40:30;;;;;;;6.55;4.07;;;;;;;;;;4997897;28;20197;-86
2023/07/02 13:42:56;;;;;;;8.18;4.43;;;;;;;;;;4995708;28;20443;-86
2023/07/02 13:45:22;;;;;;;7.75;4.30;;;;;;;;;;4997982;28;20182;-88
2023/07/02 13:47:48;;;;;;;7.32;4.22;;;;;;;;;;4988394;28;20182;-87
2023/07/02 13:50:14;;;;;;;7.57;4.50;;;;;;;;;;4981426;28;20221;-87
2023/07/02 13:52:41;;;;;;;7.60;4.22;;;;;;;;;;4979211;28;20236;-88
2023/07/02 13:55:07;;;;;;;7.72;4.00;;;;;;;;;;4993643;28;20181;-88
2023/07/02 13:57:33;;;;;;;6.72;4.07;;;;;;;;;;4993511;28;20177;-88
2023/07/02 13:59:59;;;;;;;8.43;4.30;;;;;;;;;;4997315;28;20193;-90
2023/07/02 14:02:25;;;;;;;7.95;4.38;;;;;;;;;;4997616;28;20281;-88
2023/07/02 14:04:51;;;;;;;7.93;4.50;;;;;;;;;;4997194;28;20304;-86
2023/07/02 14:07:17;;;;;;;8.90;4.43;;;;;;;;;;4998474;28;20180;-87
2023/07/02 14:09:43;;;;;;;7.10;4.32;;;;;;;;;;4997879;28;20188;-87
2023/07/02 14:12:09;;;;;;;9.60;4.40;;;;;;;;;;4997749;28;20185;-87
2023/07/02 14:14:35;;;;;;;7.63;4.45;;;;;;;;;;4980862;28;20185;-86
2023/07/02 14:17:01;;;;;;;8.32;4.57;;;;;;;;;;4980979;28;20185;-86
2023/07/02 14:19:27;;;;;;;8.32;4.35;;;;;;;;;;4997447;28;20213;-85
2023/07/02 14:21:53;;;;;;;7.28;4.50;;;;;;;;;;4981187;28;20248;-86
2023/07/02 14:24:19;;;;;;;7.53;4.55;;;;;;;;;;4981241;28;20221;-85
2023/07/02 14:26:45;;;;;;;9.57;4.50;;;;;;;;;;4997284;28;20178;-85
2023/07/02 14:29:11;;;;;;;8.82;4.50;;;;;;;;;;4981359;28;20201;-86
2023/07/02 14:31:37;;;;;;;7.32;4.22;;;;;;;;;;4997086;28;20211;-85